Georgetown, TN

8:04 PM EDT on August 03, 2015 (GMT -0400)
Brookes edge | | Change Station
CLOSE
Current Station
Personal Weather Station
Location: Cleveland, TN
Elevation: 994 ft
Nearby Weather Stations

Elev 994 ft 35.21 °N, 84.88 °W | Updated 13 seconds ago

Clear
Clear
89.1 °F
Feels Like 89 °F
N
0.4
Wind Variable Wind from North
Gusts 2.5 mph

Today
High -- | Low -- °F
--% Chance of Precip.
Yesterday
High -- | Low -- °F
Precip. -- in
6:49 AM 8:41 PM
Waning Gibbous, 83% visible
Pressure 29.94 in
Visibility 10.0 miles
Clouds Clear
Heat Index 89 °F
Dew Point 61 °F
Humidity 39%
Rainfall 0.00 in
Snow Depth Not available.
UV 1.0 out of 12
Pollen 4.90 out of 12
Air Quality Not available.
Flu Activity Not available.
METAR KRZR 032215Z AUTO 00000KT 10SM CLR 32/14 A2994 RMK

More Conditions Fewer Conditions

Pressure 29.94 in
Visibility 10.0 miles
Clouds Clear
Heat Index 89 °F
Dew Point 61 °F
Humidity 39%
Rainfall 0.00 in
Snow Depth Not available.
UV 1.0 out of 12
Pollen 4.90 out of 12
Air Quality Not available.
Flu Activity Not available.
METAR KRZR 032215Z AUTO 00000KT 10SM CLR 32/14 A2994 RMK

More Conditions Fewer Conditions

10-Day Weather Forecast

×

Almanac

Astronomy

Aug. 03, 2015 Rise Set
Actual Time
Civil Twilight
Nautical Twilight
Astronomical Twilight
Moon
Length of Visible Light
Length of Day
Tomorrow will be .
, % of the Moon is Illuminated

Today's Extremes

State Highs State Lows

Community

WunderPhotos

Upload Photos

1,843,788 photos uploaded!

WunderBlogs® & News

Nearby

Air Quality

  Air Quality AQ Index Pollutant
Not available.

Snow Depth

Station Depth Elevation

Earthquake Activity

City Distance Mag. Time & Date
Minimum magnitude displayed is 2.5.

Coastal Water Temperatures

Place Temperature

Stations

Nearby Weather Stations

Station Location Temp. Windchill Dew Point Humidity Wind Precip. Elev Updated Type